createdAt,value
2019-04-05T00:03:18.835Z,27.87
2019-04-05T00:08:11.886Z,17.60
2019-04-05T00:13:04.957Z,32.90
2019-04-05T00:17:57.041Z,20.83
2019-04-05T00:22:49.685Z,19.90
2019-04-05T00:27:42.585Z,17.47
2019-04-05T00:32:35.169Z,19.93
2019-04-05T00:37:27.977Z,26.87
2019-04-05T00:42:20.530Z,42.93
2019-04-05T00:47:13.041Z,63.40
2019-04-05T00:52:05.725Z,41.37
2019-04-05T00:56:58.378Z,47.60
2019-04-05T01:01:51.226Z,37.70
2019-04-05T01:06:43.653Z,25.53
2019-04-05T01:11:36.437Z,42.43
2019-04-05T01:16:29.270Z,78.63
2019-04-05T01:21:25.070Z,33.80
2019-04-05T01:26:19.365Z,47.97
2019-04-05T01:31:11.773Z,63.13
2019-04-05T01:36:04.157Z,75.50
2019-04-05T01:40:58.047Z,50.73
2019-04-05T01:45:53.824Z,35.47
2019-04-05T01:50:44.681Z,94.47
2019-04-05T01:55:37.085Z,59.20
2019-04-05T02:00:29.415Z,58.17
2019-04-05T02:05:22.075Z,54.43
2019-04-05T02:10:15.079Z,80.80
2019-04-05T02:15:08.744Z,65.20
2019-04-05T02:20:01.441Z,66.13
2019-04-05T02:24:54.333Z,83.10
2019-04-05T02:29:47.022Z,61.60
2019-04-05T02:34:39.768Z,48.57
2019-04-05T02:39:32.227Z,35.90
2019-04-05T02:44:26.562Z,44.03
2019-04-05T02:49:20.638Z,26.37
2019-04-05T02:54:14.394Z,31.93
2019-04-05T02:59:07.909Z,25.73
2019-04-05T03:04:00.897Z,40.40
2019-04-05T03:08:54.309Z,59.97
2019-04-05T03:13:49.522Z,68.50
2019-04-05T03:18:44.763Z,81.10
2019-04-05T03:23:40.264Z,45.03
2019-04-05T03:28:36.202Z,74.20
2019-04-05T03:33:29.127Z,61.07
2019-04-05T03:38:21.740Z,62.73
2019-04-05T03:43:14.682Z,66.63
2019-04-05T03:48:08.522Z,65.77
2019-04-05T03:53:01.091Z,53.20
2019-04-05T03:57:53.584Z,34.90
2019-04-05T04:02:46.431Z,62.90
2019-04-05T04:07:39.426Z,49.30
2019-04-05T04:12:31.629Z,64.17
2019-04-05T04:17:24.768Z,54.00
2019-04-05T04:22:25.753Z,40.20
2019-04-05T04:27:18.702Z,40.63
2019-04-05T04:32:12.046Z,32.50
2019-04-05T04:37:05.155Z,35.43
2019-04-05T04:41:58.540Z,40.67
2019-04-05T04:46:51.392Z,41.10
2019-04-05T04:51:44.108Z,51.30
2019-04-05T04:56:37.553Z,40.13
2019-04-05T05:01:30.120Z,35.27
2019-04-05T05:06:22.797Z,29.60
2019-04-05T05:11:15.549Z,36.70
2019-04-05T05:16:08.022Z,43.53
2019-04-05T05:21:01.173Z,45.00
2019-04-05T05:25:53.653Z,60.63
2019-04-05T05:30:46.080Z,63.53
2019-04-05T05:35:38.673Z,49.47
2019-04-05T05:40:35.162Z,49.10
2019-04-05T05:45:25.892Z,40.03
2019-04-05T05:50:18.430Z,51.27
2019-04-05T05:55:13.150Z,40.63
2019-04-05T06:00:09.774Z,65.63
2019-04-05T06:05:02.054Z,72.20
2019-04-05T06:09:54.679Z,79.97
2019-04-05T06:14:47.712Z,57.73
2019-04-05T06:19:40.077Z,67.97
2019-04-05T06:24:32.740Z,43.57
2019-04-05T06:29:25.643Z,67.67
2019-04-05T06:34:17.789Z,41.77
2019-04-05T06:39:10.080Z,40.13
2019-04-05T06:44:02.911Z,59.73
2019-04-05T06:48:55.726Z,63.07
2019-04-05T06:53:48.393Z,71.90
2019-04-05T06:58:40.768Z,52.13
2019-04-05T07:03:33.483Z,59.27
2019-04-05T07:08:25.811Z,51.60
2019-04-05T07:13:18.303Z,52.27
2019-04-05T07:18:10.711Z,44.30
2019-04-05T07:23:03.235Z,49.40
2019-04-05T07:27:55.627Z,56.63
2019-04-05T07:32:47.871Z,54.47
2019-04-05T07:37:40.404Z,52.67
2019-04-05T07:42:32.721Z,38.67
2019-04-05T07:47:25.430Z,38.37
2019-04-05T07:52:18.148Z,38.77
2019-04-05T07:57:10.866Z,37.87
2019-04-05T08:02:03.261Z,42.50
2019-04-05T08:06:58.484Z,48.77
2019-04-05T08:11:50.783Z,44.33
2019-04-05T08:16:43.683Z,40.40
2019-04-05T08:21:36.376Z,37.33
2019-04-05T08:26:29.049Z,37.87
2019-04-05T08:31:21.596Z,30.97
2019-04-05T08:36:14.195Z,30.23
2019-04-05T08:41:06.584Z,29.90
2019-04-05T08:45:58.736Z,26.33
2019-04-05T08:50:51.205Z,28.73
2019-04-05T08:55:43.712Z,32.10
2019-04-05T09:00:36.438Z,28.80
2019-04-05T09:05:29.028Z,31.47
2019-04-05T09:10:21.727Z,30.30
2019-04-05T09:15:14.299Z,31.00
2019-04-05T09:20:07.243Z,30.77
2019-04-05T09:24:59.675Z,29.05
2019-04-05T09:29:52.393Z,31.55
2019-04-05T09:34:44.700Z,27.32
2019-04-05T09:39:37.043Z,30.75
2019-04-05T09:44:29.455Z,29.70
2019-04-05T09:49:21.871Z,25.85
2019-04-05T09:54:14.432Z,26.12
2019-04-05T09:59:08.916Z,24.05
2019-04-05T10:04:00.952Z,24.40
2019-04-05T10:08:53.331Z,24.67
2019-04-05T10:13:45.539Z,21.45
2019-04-05T10:18:38.191Z,22.98
2019-04-05T10:23:30.808Z,21.27
2019-04-05T10:28:23.092Z,18.60
2019-04-05T10:33:15.655Z,20.40
2019-04-05T10:38:08.144Z,21.25
2019-04-05T10:43:00.953Z,20.60
2019-04-05T10:47:53.580Z,22.65
2019-04-05T10:52:46.269Z,20.88
2019-04-05T10:57:38.748Z,20.70
2019-04-05T11:02:31.489Z,21.27
2019-04-05T11:07:24.068Z,23.62
2019-04-05T11:12:16.691Z,20.80
2019-04-05T11:17:09.227Z,20.90
2019-04-05T11:22:01.464Z,19.27
2019-04-05T11:26:54.121Z,21.75
2019-04-05T11:31:56.310Z,21.48
2019-04-05T11:36:40.986Z,30.48
2019-04-05T11:41:34.231Z,19.45
2019-04-05T11:46:27.780Z,19.85
2019-04-05T11:51:20.096Z,16.10
2019-04-05T11:56:14.808Z,16.17
2019-04-05T12:01:08.085Z,16.45
2019-04-05T12:06:00.694Z,15.05
2019-04-05T12:10:53.399Z,18.05
2019-04-05T12:15:45.892Z,17.05
2019-04-05T12:20:49.464Z,16.50
2019-04-05T12:25:33.762Z,17.77
2019-04-05T12:30:27.211Z,14.95
2019-04-05T12:35:21.614Z,18.02
2019-04-05T12:40:14.844Z,17.82
2019-04-05T12:45:07.976Z,15.28
2019-04-05T12:50:00.564Z,15.23
2019-04-05T12:54:54.939Z,15.65
2019-04-05T12:59:47.019Z,13.03
2019-04-05T13:04:39.436Z,13.38
2019-04-05T13:09:31.806Z,13.18
2019-04-05T13:14:26.090Z,11.88
2019-04-05T13:19:18.403Z,12.13
2019-04-05T13:24:11.107Z,11.25
2019-04-05T13:29:03.508Z,11.57
2019-04-05T13:33:56.312Z,9.73
2019-04-05T13:38:54.688Z,17.87
2019-04-05T13:43:43.505Z,9.83
2019-04-05T13:48:37.628Z,9.30
2019-04-05T13:53:30.054Z,10.63
2019-04-05T13:58:22.629Z,11.73
2019-04-05T14:03:15.214Z,10.35
2019-04-05T14:08:11.056Z,10.88
2019-04-05T14:13:02.069Z,9.33
2019-04-05T14:17:54.555Z,8.70
2019-04-05T14:22:48.634Z,15.30
2019-04-05T14:27:41.366Z,13.10
2019-04-05T14:32:34.224Z,10.23
2019-04-05T14:37:26.893Z,11.63
2019-04-05T14:42:19.706Z,11.78
2019-04-05T14:47:12.429Z,11.93
2019-04-05T14:52:04.913Z,12.98
2019-04-05T14:56:57.698Z,11.55
2019-04-05T15:01:51.597Z,14.40
2019-04-05T15:06:44.064Z,13.30
2019-04-05T15:11:36.635Z,13.28
2019-04-05T15:16:29.029Z,14.25
2019-04-05T15:21:21.351Z,14.07
2019-04-05T15:26:13.655Z,13.08
2019-04-05T15:31:06.432Z,14.15
2019-04-05T15:36:02.949Z,12.82
2019-04-05T15:40:53.263Z,13.98
2019-04-05T15:45:45.697Z,13.85
2019-04-05T15:50:38.429Z,14.63
2019-04-05T15:55:33.248Z,14.15
2019-04-05T16:00:44.625Z,13.05
2019-04-05T16:05:37.147Z,14.58
2019-04-05T16:10:29.687Z,14.25
2019-04-05T16:15:22.475Z,13.78
2019-04-05T16:20:16.886Z,13.48
2019-04-05T16:25:10.050Z,13.07
2019-04-05T16:30:02.484Z,13.22
2019-04-05T16:34:54.589Z,15.78
2019-04-05T16:39:47.341Z,18.75
2019-04-05T16:44:39.899Z,15.53
2019-04-05T16:49:32.305Z,15.55
2019-04-05T16:54:24.994Z,14.75
2019-04-05T16:59:17.579Z,17.82
2019-04-05T17:04:10.444Z,14.45
2019-04-05T17:09:03.094Z,14.93
2019-04-05T17:13:59.355Z,14.53
2019-04-05T17:18:49.678Z,16.13
2019-04-05T17:23:42.291Z,16.93
2019-04-05T17:28:34.990Z,15.83
2019-04-05T17:33:27.548Z,15.55
2019-04-05T17:38:20.499Z,15.23
2019-04-05T17:43:13.037Z,14.47
2019-04-05T17:48:05.794Z,16.05
2019-04-05T17:53:11.377Z,16.32
2019-04-05T17:57:53.118Z,16.65
2019-04-05T18:02:45.733Z,19.62
2019-04-05T18:07:38.185Z,15.60
2019-04-05T18:12:30.671Z,17.53
2019-04-05T18:17:22.930Z,19.25
2019-04-05T18:22:15.405Z,20.50
2019-04-05T18:27:08.034Z,21.60
2019-04-05T18:32:00.773Z,22.23
2019-04-05T18:36:53.557Z,23.87
2019-04-05T18:41:46.107Z,25.00
2019-04-05T18:46:38.678Z,23.55
2019-04-05T18:51:31.138Z,26.13
2019-04-05T18:56:23.505Z,26.27
2019-04-05T19:01:16.213Z,27.02
2019-04-05T19:06:08.970Z,27.03
2019-04-05T19:11:01.607Z,28.20
2019-04-05T19:15:54.173Z,30.17
2019-04-05T19:20:46.367Z,29.90
2019-04-05T19:25:40.233Z,30.05
2019-04-05T19:50:08.941Z,32.67
2019-04-05T19:55:01.582Z,33.70
2019-04-05T19:59:54.210Z,31.73
2019-04-05T20:04:46.694Z,36.43
2019-04-05T20:09:39.234Z,33.28
2019-04-05T20:14:31.509Z,36.88
2019-04-05T20:19:24.120Z,34.30
2019-04-05T20:24:16.805Z,38.75
2019-04-05T20:29:09.426Z,41.77
2019-04-05T20:34:04.164Z,39.30
2019-04-05T20:38:58.995Z,35.83
2019-04-05T20:43:51.765Z,38.43
2019-04-05T20:48:44.381Z,37.98
2019-04-05T20:53:36.657Z,36.83
2019-04-05T20:58:29.098Z,37.13
2019-04-05T21:03:21.753Z,36.95
2019-04-05T21:08:15.973Z,42.70
2019-04-05T21:13:08.650Z,40.00
2019-04-05T21:18:01.005Z,38.87
2019-04-05T21:22:53.482Z,38.70
2019-04-05T21:27:46.676Z,40.47
2019-04-05T21:32:39.298Z,40.57
2019-04-05T21:37:31.694Z,40.73
2019-04-05T21:42:24.586Z,42.53
2019-04-05T21:47:17.186Z,41.53
2019-04-05T21:52:09.990Z,42.33
2019-04-05T21:57:02.390Z,44.90
2019-04-05T22:01:55.461Z,42.63
2019-04-05T22:06:48.333Z,44.83
2019-04-05T22:11:40.712Z,44.63
2019-04-05T22:16:33.213Z,46.17
2019-04-05T22:21:25.984Z,46.80
2019-04-05T22:26:18.631Z,42.93
2019-04-05T22:31:11.612Z,43.57
2019-04-05T22:36:04.062Z,47.73
2019-04-05T22:40:56.406Z,202.57
2019-04-05T22:45:48.789Z,97.02
2019-04-05T22:50:41.222Z,73.97
2019-04-05T22:55:33.945Z,71.37
2019-04-05T23:00:26.268Z,77.27
2019-04-05T23:05:18.906Z,99.93
2019-04-05T23:10:12.212Z,80.83
2019-04-05T23:15:08.066Z,69.60
2019-04-05T23:20:00.801Z,57.90
2019-04-05T23:24:53.325Z,61.23
2019-04-05T23:29:45.956Z,74.83
2019-04-05T23:34:38.631Z,100.10
2019-04-05T23:39:31.068Z,95.60
2019-04-05T23:44:23.545Z,91.93
2019-04-05T23:49:15.884Z,99.57
2019-04-05T23:54:08.723Z,111.37
2019-04-05T23:59:01.173Z,88.83
